Monday, November 20, 2017, 6:57 PM GMT
Back to Local

CYGK, Kingston, Ont.

Location: , , Canada Lat: 44.217
Local Time: 6:57 PM GMT (18:57 GMT) Lon: -76.6
Time Zone: GMT Elev: 305 ft

Show me the last for .
Show Coded

Time T Td Feel RH Dir Speed Gust Alt SLP Vis Weather Sky Remarks
2017-11-20 18:31 30 27 23 86 350° 8 - 29.90 29.92 3 -SHSN OVC019TCU None
2017-11-20 18:22 30 27 22 86 350° 9 - 29.90 29.92 2 -SHSN OVC019TCU None
2017-11-20 18:00 30 27 23 86 360° 8 - 29.90 29.92 4 -SHGS OVC022TCU None
2017-11-20 17:44 32 27 24 80 340° 9 - 29.90 29.92 5 -SHGS OVC025TCU None
2017-11-20 17:20 34 27 27 74 330° 8 - 29.89 29.90 10 -SHGS BKN030TCU OVC050 None
2017-11-20 17:00 36 25 29 64 280° 9 - 29.89 29.90 15 BKN030 BKN050 None
2017-11-20 16:00 32 25 21 74 260° 9 17 29.89 29.90 15 FEW030 BKN045 BKN075 None
2017-11-20 15:23 30 23 21 74 280° 10 - 29.90 29.91 15 FEW035 FEW050 BKN070 None
2017-11-20 15:00 30 23 22 74 260° 9 - 29.89 29.91 15 FEW030 BKN077 None
2017-11-20 14:36 30 23 22 74 250° 9 - 29.90 29.91 15 FEW030 SCT045 BKN080 None
2017-11-20 14:00 25 21 - 85 - Calm - 29.91 29.93 5 -SHSN BKN035TCU BKN070 None
2017-11-20 13:00 23 19 - 85 Variable 2 - 29.92 29.93 12 -SHSN BKN030TCU OVC075 None
2017-11-20 12:00 23 18 - 79 - Calm - 29.92 29.93 12 -SHSN FEW015 OVC025 None
2017-11-20 11:46 23 18 - 79 - Calm - 29.92 29.93 6 -SHSN FEW020 OVC026TCU None
2017-11-20 11:28 23 16 16 73 290° 6 - 29.91 29.93 2 -SHSN SCT021 OVC032TCU None
2017-11-20 11:16 23 16 16 73 290° 6 - 29.91 29.93 4 -SHSN OVC035 None
2017-11-20 11:00 25 14 20 62 290° 3 - 29.90 29.92 12 -SHSN SCT030 BKN045 OVC065 None
2017-11-20 04:00 28 21 19 74 280° 10 - 29.75 29.77 15 -SN BKN052 6-hr Min Temp (4am): 51.8°F
2017-11-20 03:32 28 21 16 74 280° 13 18 29.74 29.76 15 -SN SCT050 None
2017-11-20 03:00 28 21 19 74 280° 10 - 29.73 29.74 15 FEW080 None
2017-11-20 02:00 30 23 23 74 280° 8 - 29.71 29.72 15 SCT082 None
2017-11-20 01:00 30 25 23 80 280° 8 - 29.69 29.70 15 FEW040 BKN081 None
2017-11-20 00:00 32 27 24 80 280° 9 - 29.68 29.70 14 -SN SCT037 OVC086 None
2017-11-19 23:34 32 27 24 80 290° 9 - 29.68 29.69 15 -SN BKN033 OVC083 None
2017-11-19 23:00 34 25 25 69 280° 12 - 29.66 29.68 15 BKN040 OVC086 None
2017-11-19 22:00 34 25 26 69 280° 9 - 29.64 29.66 15 FEW025 OVC031 None
2017-11-19 21:00 34 25 23 69 280° 9 17 29.62 29.63 15 SCT022 BKN047 None
2017-11-19 20:00 34 28 25 80 280° 13 - 29.58 29.60 15 BKN023 OVC042 None
2017-11-19 19:00 34 28 26 80 280° 9 - 29.56 29.57 15 -SHGS BKN024 OVC042 None

Support USWX by starting your Amazon purchase here.